Time;durP1;ratioP1;P1;durP2;ratioP2;P2;SDS_P1;SDS_P2;PMS_P1;PMS_P2;Temp;Humidity;BMP_temperature;BMP_pressure;BME280_temperature;BME280_humidity;BME280_pressure;Samples;Min_cycle;Max_cycle;Signal;HPM_P1;HPM_P2
2022/07/16 00:02:19;;;;;;;;;;;24.70;48.30;;;;;;5068523;28;19923;-63
2022/07/16 00:04:45;;;;;;;;;;;24.60;48.40;;;;;;5067818;28;19913;-63
2022/07/16 00:07:10;;;;;;;;;;;24.60;48.50;;;;;;5070152;28;19916;-63
2022/07/16 00:09:35;;;;;;;;;;;24.60;48.40;;;;;;5068590;28;19958;-63
2022/07/16 00:12:01;;;;;;;;;;;24.50;48.60;;;;;;5072237;28;19925;-63
2022/07/16 00:14:26;;;;;;;;;;;24.50;48.70;;;;;;5071127;28;19924;-63
2022/07/16 00:16:52;;;;;;;;;;;24.50;48.70;;;;;;5069122;28;20376;-63
2022/07/16 00:19:21;;;;;;;;;;;24.50;48.70;;;;;;5065468;28;20404;-63
2022/07/16 00:21:49;;;;;;;;;;;24.50;48.90;;;;;;5066091;28;20011;-63
2022/07/16 00:24:15;;;;;;;;;;;24.40;48.80;;;;;;5071082;28;20490;-63
2022/07/16 00:26:40;;;;;;;;;;;24.40;48.80;;;;;;5071034;28;19919;-63
2022/07/16 00:29:06;;;;;;;;;;;24.40;49.00;;;;;;5071695;28;19913;-63
2022/07/16 00:31:31;;;;;;;;;;;24.40;48.70;;;;;;5070693;28;19920;-63
2022/07/16 00:33:57;;;;;;;;;;;24.40;48.80;;;;;;5062969;28;19935;-63
2022/07/16 00:36:22;;;;;;;;;;;24.40;48.70;;;;;;5070542;28;20392;-63
2022/07/16 00:38:48;;;;;;;;;;;24.50;48.70;;;;;;5069724;28;19952;-63
2022/07/16 00:41:16;;;;;;;;;;;24.50;48.70;;;;;;5072151;28;19912;-63
2022/07/16 00:43:49;;;;;;;;;;;24.40;49.00;;;;;;5067640;28;19919;-63
2022/07/16 00:46:15;;;;;;;;;;;24.40;49.20;;;;;;5061358;28;20292;-63
2022/07/16 00:48:40;;;;;;;;;;;24.30;49.30;;;;;;5067745;28;19912;-63
2022/07/16 00:51:06;;;;;;;;;;;24.30;49.30;;;;;;5067379;28;19916;-63
2022/07/16 00:53:32;;;;;;;;;;;24.30;49.60;;;;;;5063045;28;20426;-63
2022/07/16 00:55:57;;;;;;;;;;;24.30;49.60;;;;;;5053578;28;19916;-63
2022/07/16 00:58:23;;;;;;;;;;;24.40;49.60;;;;;;5071865;28;19908;-62
2022/07/16 01:00:48;;;;;;;;;;;24.40;49.30;;;;;;5069967;28;20003;-62
2022/07/16 01:03:14;;;;;;;;;;;24.40;49.70;;;;;;5068200;28;19912;-63
2022/07/16 01:05:39;;;;;;;;;;;24.40;49.50;;;;;;5065304;28;20390;-63
2022/07/16 01:08:05;;;;;;;;;;;24.40;49.80;;;;;;5071616;28;20334;-63
2022/07/16 01:10:30;;;;;;;;;;;24.30;50.00;;;;;;5069597;28;19915;-62
2022/07/16 01:12:59;;;;;;;;;;;24.20;50.00;;;;;;5069442;28;19920;-63
2022/07/16 01:15:24;;;;;;;;;;;24.20;50.00;;;;;;5051588;28;19974;-63
2022/07/16 01:17:49;;;;;;;;;;;24.30;50.30;;;;;;5054433;28;20401;-63
2022/07/16 01:20:15;;;;;;;;;;;24.20;50.40;;;;;;5057922;28;20270;-63
2022/07/16 01:22:40;;;;;;;;;;;24.20;50.10;;;;;;5054552;28;19966;-63
2022/07/16 01:25:07;;;;;;;;;;;24.20;50.30;;;;;;5070324;28;19913;-63
2022/07/16 01:27:33;;;;;;;;;;;24.20;50.20;;;;;;5067989;28;20330;-63
2022/07/16 01:29:58;;;;;;;;;;;24.30;50.20;;;;;;5070381;28;20011;-63
2022/07/16 01:32:23;;;;;;;;;;;24.20;50.30;;;;;;5069919;28;19920;-63
2022/07/16 01:34:49;;;;;;;;;;;24.30;50.30;;;;;;5069668;28;20018;-62
2022/07/16 01:37:15;;;;;;;;;;;24.30;50.40;;;;;;5068752;28;19920;-63
2022/07/16 01:39:40;;;;;;;;;;;24.30;50.30;;;;;;5071290;28;20509;-63
2022/07/16 01:42:06;;;;;;;;;;;24.30;50.70;;;;;;5070309;28;20013;-63
2022/07/16 01:44:32;;;;;;;;;;;24.30;50.20;;;;;;5070573;28;20348;-63
2022/07/16 01:46:58;;;;;;;;;;;24.30;50.40;;;;;;5050744;28;20000;-63
2022/07/16 01:49:23;;;;;;;;;;;24.30;50.60;;;;;;5064855;28;19937;-63
2022/07/16 01:51:48;;;;;;;;;;;24.30;50.70;;;;;;5066641;28;20399;-63
2022/07/16 01:54:14;;;;;;;;;;;24.30;51.00;;;;;;5070008;28;19952;-63
2022/07/16 01:56:39;;;;;;;;;;;24.20;50.90;;;;;;5068842;28;19928;-63
2022/07/16 01:59:05;;;;;;;;;;;24.20;50.80;;;;;;5073347;28;19912;-63
2022/07/16 02:01:31;;;;;;;;;;;24.20;51.10;;;;;;5071971;28;19943;-63
2022/07/16 02:03:56;;;;;;;;;;;24.20;51.10;;;;;;5073521;28;19947;-62
2022/07/16 02:06:22;;;;;;;;;;;24.20;51.40;;;;;;5068147;28;19912;-63
2022/07/16 02:08:47;;;;;;;;;;;24.20;51.60;;;;;;5073326;28;20322;-63
2022/07/16 02:11:12;;;;;;;;;;;24.20;51.40;;;;;;5073270;28;20003;-63
2022/07/16 02:13:38;;;;;;;;;;;24.20;51.60;;;;;;5073271;28;19923;-63
2022/07/16 02:16:04;;;;;;;;;;;24.20;51.70;;;;;;5074253;28;19916;-63
2022/07/16 02:18:29;;;;;;;;;;;24.20;51.70;;;;;;5072261;28;20003;-63
2022/07/16 02:20:54;;;;;;;;;;;24.10;51.70;;;;;;5071738;28;20414;-62
2022/07/16 02:23:20;;;;;;;;;;;24.10;51.70;;;;;;5074577;28;19945;-63
2022/07/16 02:25:45;;;;;;;;;;;24.10;51.70;;;;;;5059309;28;19927;-63
2022/07/16 02:28:11;;;;;;;;;;;24.10;51.90;;;;;;5060446;28;19934;-63
2022/07/16 02:30:38;;;;;;;;;;;24.10;51.80;;;;;;5056885;28;19969;-63
2022/07/16 02:33:04;;;;;;;;;;;24.10;51.90;;;;;;5071678;28;19927;-63
2022/07/16 02:35:29;;;;;;;;;;;24.00;52.10;;;;;;5070615;28;19925;-63
2022/07/16 02:37:56;;;;;;;;;;;24.00;51.90;;;;;;5074142;28;19912;-63
2022/07/16 02:40:21;;;;;;;;;;;24.10;52.10;;;;;;5071759;28;20002;-63
2022/07/16 02:42:46;;;;;;;;;;;24.10;52.00;;;;;;5072102;28;19991;-63
2022/07/16 02:45:12;;;;;;;;;;;24.10;52.20;;;;;;5073121;28;19912;-63
2022/07/16 02:47:37;;;;;;;;;;;24.10;52.20;;;;;;5066066;28;19982;-63
2022/07/16 02:50:03;;;;;;;;;;;24.10;52.20;;;;;;5069252;28;20356;-63
2022/07/16 02:52:29;;;;;;;;;;;24.10;51.90;;;;;;5069721;28;19928;-62
2022/07/16 02:54:54;;;;;;;;;;;24.20;52.00;;;;;;5064336;28;20269;-63
2022/07/16 02:57:19;;;;;;;;;;;24.10;52.00;;;;;;5070900;28;19936;-63
2022/07/16 02:59:45;;;;;;;;;;;24.20;52.00;;;;;;5063815;28;20013;-63
2022/07/16 03:02:10;;;;;;;;;;;24.20;52.10;;;;;;5072999;28;19916;-63
2022/07/16 03:04:36;;;;;;;;;;;24.10;52.00;;;;;;5070220;28;19912;-63
2022/07/16 03:07:01;;;;;;;;;;;24.10;52.20;;;;;;5070629;28;19913;-63
2022/07/16 03:09:27;;;;;;;;;;;24.10;52.10;;;;;;5071494;28;19913;-63
2022/07/16 03:11:52;;;;;;;;;;;24.10;52.20;;;;;;5073580;28;19970;-63
2022/07/16 03:14:18;;;;;;;;;;;24.10;52.20;;;;;;5072372;28;19949;-62
2022/07/16 03:16:43;;;;;;;;;;;24.10;52.20;;;;;;5072338;28;19916;-63
2022/07/16 03:19:08;;;;;;;;;;;24.10;52.20;;;;;;5071673;28;20285;-63
2022/07/16 03:21:34;;;;;;;;;;;24.10;52.20;;;;;;5072379;28;20393;-63
2022/07/16 03:23:59;;;;;;;;;;;24.10;52.20;;;;;;5071565;28;20079;-63
2022/07/16 03:26:25;;;;;;;;;;;24.00;52.20;;;;;;5072146;28;19919;-63
2022/07/16 03:28:50;;;;;;;;;;;24.00;52.30;;;;;;5072395;28;20007;-63
2022/07/16 03:31:17;;;;;;;;;;;24.00;52.50;;;;;;5071023;28;19920;-63
2022/07/16 03:33:42;;;;;;;;;;;24.00;52.50;;;;;;5069601;28;20368;-63
2022/07/16 03:36:08;;;;;;;;;;;23.90;52.40;;;;;;5070942;28;19916;-63
2022/07/16 03:41:18;;;;;;;;;;;23.90;52.60;;;;;;5066619;28;20383;-63
2022/07/16 03:43:43;;;;;;;;;;;23.90;52.50;;;;;;5054463;28;19912;-63
2022/07/16 03:46:12;;;;;;;;;;;23.90;52.70;;;;;;5072965;28;19947;-63
2022/07/16 03:48:37;;;;;;;;;;;23.80;52.80;;;;;;5071654;28;19965;-63
2022/07/16 03:51:04;;;;;;;;;;;23.90;52.70;;;;;;5065598;28;20372;-63
2022/07/16 03:53:29;;;;;;;;;;;23.80;52.90;;;;;;5072791;28;20651;-63
2022/07/16 03:55:55;;;;;;;;;;;23.90;52.70;;;;;;5071702;28;19917;-63
2022/07/16 03:58:20;;;;;;;;;;;23.80;52.70;;;;;;5071295;28;19960;-63
2022/07/16 04:00:45;;;;;;;;;;;23.80;52.90;;;;;;5069302;28;19912;-63
2022/07/16 04:03:11;;;;;;;;;;;23.80;52.70;;;;;;5053282;28;19919;-63
2022/07/16 04:05:36;;;;;;;;;;;23.80;52.90;;;;;;5066583;28;19943;-63
2022/07/16 04:08:02;;;;;;;;;;;23.80;52.90;;;;;;5071575;28;19919;-63
2022/07/16 04:10:27;;;;;;;;;;;23.80;52.90;;;;;;5069465;28;19919;-63
2022/07/16 04:12:53;;;;;;;;;;;23.80;52.80;;;;;;5069372;28;20288;-63
2022/07/16 04:15:18;;;;;;;;;;;23.80;52.90;;;;;;5069958;28;20029;-63
2022/07/16 04:17:43;;;;;;;;;;;23.90;52.70;;;;;;5068851;28;20128;-63
2022/07/16 04:20:09;;;;;;;;;;;23.90;52.70;;;;;;5070221;28;20024;-63
2022/07/16 04:22:34;;;;;;;;;;;23.80;52.80;;;;;;5068132;28;19912;-63
2022/07/16 04:25:00;;;;;;;;;;;23.80;52.80;;;;;;5072172;28;19908;-63
2022/07/16 04:27:25;;;;;;;;;;;23.80;52.80;;;;;;5060640;28;19913;-63
2022/07/16 04:29:51;;;;;;;;;;;23.80;52.90;;;;;;5072328;28;19912;-63
2022/07/16 04:32:16;;;;;;;;;;;23.80;52.80;;;;;;5069400;28;19920;-63
2022/07/16 04:34:42;;;;;;;;;;;23.80;52.70;;;;;;5069207;28;19952;-63
2022/07/16 04:37:07;;;;;;;;;;;23.90;52.70;;;;;;5070211;28;20002;-63
2022/07/16 04:39:33;;;;;;;;;;;23.80;52.60;;;;;;5071019;28;19997;-63
2022/07/16 04:41:58;;;;;;;;;;;23.90;52.60;;;;;;5072099;28;20007;-63
2022/07/16 04:44:24;;;;;;;;;;;23.90;52.50;;;;;;5061885;28;19924;-63
2022/07/16 04:46:49;;;;;;;;;;;23.80;52.60;;;;;;5069321;28;20600;-63
2022/07/16 04:49:14;;;;;;;;;;;23.80;52.60;;;;;;5059269;28;20273;-63
2022/07/16 04:51:40;;;;;;;;;;;23.80;52.80;;;;;;5067244;28;20019;-63
2022/07/16 04:54:06;;;;;;;;;;;23.80;52.80;;;;;;5067880;28;19920;-63
2022/07/16 04:56:31;;;;;;;;;;;23.80;52.80;;;;;;5071871;28;19912;-63
2022/07/16 04:58:56;;;;;;;;;;;23.70;52.70;;;;;;5071991;28;19908;-63
2022/07/16 05:01:22;;;;;;;;;;;23.80;52.60;;;;;;5071637;28;19916;-63
2022/07/16 05:03:47;;;;;;;;;;;23.80;52.50;;;;;;5071598;28;19957;-63
2022/07/16 05:06:13;;;;;;;;;;;23.80;52.50;;;;;;5060185;28;19947;-63
2022/07/16 05:08:38;;;;;;;;;;;23.80;52.60;;;;;;5071608;28;19914;-63
2022/07/16 05:11:04;;;;;;;;;;;23.80;52.60;;;;;;5056251;28;19921;-63
2022/07/16 05:13:29;;;;;;;;;;;23.80;52.60;;;;;;5063869;28;19921;-63
2022/07/16 05:15:55;;;;;;;;;;;23.80;52.90;;;;;;5068118;28;19959;-63
2022/07/16 05:18:20;;;;;;;;;;;23.80;52.60;;;;;;5066662;28;19913;-63
2022/07/16 05:20:46;;;;;;;;;;;23.80;52.60;;;;;;5067051;28;20300;-63
2022/07/16 05:23:11;;;;;;;;;;;23.80;52.60;;;;;;5070023;28;19913;-63
2022/07/16 05:25:37;;;;;;;;;;;23.80;52.40;;;;;;5071437;28;19909;-63
2022/07/16 05:28:02;;;;;;;;;;;23.80;52.30;;;;;;5070347;28;19909;-62
2022/07/16 05:30:28;;;;;;;;;;;23.80;52.30;;;;;;5071378;28;19908;-63
2022/07/16 05:32:54;;;;;;;;;;;23.80;52.40;;;;;;5053397;28;19913;-63
2022/07/16 05:35:19;;;;;;;;;;;23.80;52.40;;;;;;5070213;28;19921;-63
2022/07/16 05:37:45;;;;;;;;;;;23.70;52.30;;;;;;5069107;28;20300;-63
2022/07/16 05:40:10;;;;;;;;;;;23.80;52.30;;;;;;5072876;28;19919;-63
2022/07/16 05:42:36;;;;;;;;;;;23.80;52.10;;;;;;5073801;28;19916;-63
2022/07/16 05:45:02;;;;;;;;;;;23.80;52.20;;;;;;5073704;28;19955;-63
2022/07/16 05:47:28;;;;;;;;;;;23.80;52.10;;;;;;5070862;28;20007;-63
2022/07/16 05:49:53;;;;;;;;;;;23.80;52.10;;;;;;5070961;28;20027;-63
2022/07/16 05:52:19;;;;;;;;;;;23.80;52.20;;;;;;5071934;28;19948;-63
2022/07/16 05:54:44;;;;;;;;;;;23.70;52.10;;;;;;5073005;28;19913;-63
2022/07/16 05:57:09;;;;;;;;;;;23.70;52.00;;;;;;5073349;28;19917;-63
2022/07/16 05:59:35;;;;;;;;;;;23.70;51.90;;;;;;5070139;28;19908;-63
2022/07/16 06:02:00;;;;;;;;;;;23.70;51.80;;;;;;5076061;28;19962;-63
2022/07/16 06:04:26;;;;;;;;;;;23.70;51.70;;;;;;5070802;28;19912;-63
2022/07/16 06:06:51;;;;;;;;;;;23.80;51.70;;;;;;5072886;28;20077;-63
2022/07/16 06:09:17;;;;;;;;;;;23.70;51.60;;;;;;5072688;28;19909;-63
2022/07/16 06:11:42;;;;;;;;;;;23.70;52.00;;;;;;5073180;28;19920;-63
2022/07/16 06:14:08;;;;;;;;;;;23.70;51.30;;;;;;5072181;28;20002;-63
2022/07/16 06:16:33;;;;;;;;;;;23.70;51.20;;;;;;5072028;28;19920;-63
2022/07/16 06:18:58;;;;;;;;;;;23.70;51.20;;;;;;5071128;28;20377;-63
2022/07/16 06:21:24;;;;;;;;;;;23.80;51.10;;;;;;5053491;28;19920;-63
2022/07/16 06:23:49;;;;;;;;;;;23.70;50.80;;;;;;5072538;28;19952;-63
2022/07/16 06:26:15;;;;;;;;;;;23.80;50.80;;;;;;5069520;28;19912;-63
2022/07/16 06:28:40;;;;;;;;;;;23.80;50.80;;;;;;5066768;28;19916;-63
2022/07/16 06:31:06;;;;;;;;;;;23.80;50.60;;;;;;5071103;28;19931;-63
2022/07/16 06:33:31;;;;;;;;;;;23.80;50.50;;;;;;5071106;28;19943;-63
2022/07/16 06:35:56;;;;;;;;;;;23.70;50.40;;;;;;5072607;28;19978;-63
2022/07/16 06:38:22;;;;;;;;;;;23.70;50.50;;;;;;5071034;28;19916;-63
2022/07/16 06:40:47;;;;;;;;;;;23.70;50.50;;;;;;5072525;28;19966;-63
2022/07/16 06:43:13;;;;;;;;;;;23.70;50.30;;;;;;5052193;28;20011;-63
2022/07/16 06:45:40;;;;;;;;;;;23.70;50.10;;;;;;5063209;28;19999;-63
2022/07/16 06:48:06;;;;;;;;;;;23.80;49.90;;;;;;5065526;28;19916;-63
2022/07/16 06:50:31;;;;;;;;;;;23.80;49.70;;;;;;5063494;28;19959;-63
2022/07/16 06:52:56;;;;;;;;;;;23.80;49.60;;;;;;5070573;28;19974;-63
2022/07/16 06:55:22;;;;;;;;;;;23.80;49.40;;;;;;5071682;28;19968;-63
2022/07/16 06:57:47;;;;;;;;;;;23.80;49.30;;;;;;5068642;28;19913;-63
2022/07/16 07:00:13;;;;;;;;;;;23.80;49.20;;;;;;5067251;28;19927;-63
2022/07/16 07:02:38;;;;;;;;;;;23.80;49.00;;;;;;5069580;28;19970;-63
2022/07/16 07:05:04;;;;;;;;;;;23.80;49.00;;;;;;5070379;28;19939;-63
2022/07/16 07:07:30;;;;;;;;;;;23.80;48.90;;;;;;5068288;28;20001;-63
2022/07/16 07:09:55;;;;;;;;;;;23.70;48.80;;;;;;5068897;28;19912;-63
2022/07/16 07:12:20;;;;;;;;;;;23.70;48.70;;;;;;5071629;28;19921;-63
2022/07/16 07:14:46;;;;;;;;;;;23.70;48.50;;;;;;5072876;28;19912;-63
2022/07/16 07:17:11;;;;;;;;;;;23.80;48.20;;;;;;5072427;28;20038;-63
2022/07/16 07:19:37;;;;;;;;;;;23.80;48.00;;;;;;5071767;28;19952;-63
2022/07/16 07:22:02;;;;;;;;;;;23.80;48.30;;;;;;5072476;28;19921;-63
2022/07/16 07:24:28;;;;;;;;;;;23.70;47.90;;;;;;5070120;28;19913;-63
2022/07/16 07:26:53;;;;;;;;;;;23.70;47.90;;;;;;5070543;28;19920;-63
2022/07/16 07:29:19;;;;;;;;;;;23.70;47.90;;;;;;5067410;28;19916;-63
2022/07/16 07:31:44;;;;;;;;;;;23.70;47.70;;;;;;5071194;28;19916;-63
2022/07/16 07:34:09;;;;;;;;;;;23.70;47.50;;;;;;5061569;28;19962;-63
2022/07/16 07:36:35;;;;;;;;;;;23.70;47.50;;;;;;5071910;28;19917;-63
2022/07/16 07:39:00;;;;;;;;;;;23.70;47.40;;;;;;5071086;28;20364;-63
2022/07/16 07:41:26;;;;;;;;;;;23.70;47.30;;;;;;5071827;28;20380;-63
2022/07/16 07:43:51;;;;;;;;;;;23.70;47.10;;;;;;5081289;28;19969;-63
2022/07/16 07:46:17;;;;;;;;;;;23.70;47.00;;;;;;5086395;28;19913;-62
2022/07/16 07:48:42;;;;;;;;;;;23.70;46.70;;;;;;5068550;28;19918;-63
2022/07/16 07:51:08;;;;;;;;;;;23.70;46.70;;;;;;5071230;28;19938;-63
2022/07/16 07:53:34;;;;;;;;;;;23.60;46.50;;;;;;5070317;28;20588;-63
2022/07/16 07:56:00;;;;;;;;;;;23.60;46.40;;;;;;5065011;28;19955;-63
2022/07/16 07:58:25;;;;;;;;;;;23.70;46.10;;;;;;5066642;28;19948;-63
2022/07/16 08:00:54;;;;;;;;;;;23.80;46.00;;;;;;5071426;28;19917;-63
2022/07/16 08:03:20;;;;;;;;;;;23.70;46.10;;;;;;5072349;28;19923;-63
2022/07/16 08:05:45;;;;;;;;;;;23.70;46.10;;;;;;5070945;28;19909;-63
2022/07/16 08:08:11;;;;;;;;;;;23.70;46.10;;;;;;5052681;28;19954;-63
2022/07/16 08:10:36;;;;;;;;;;;23.70;45.90;;;;;;5072443;28;19909;-63
2022/07/16 08:13:01;;;;;;;;;;;23.70;45.80;;;;;;5069798;28;19916;-63
2022/07/16 08:15:27;;;;;;;;;;;23.70;45.70;;;;;;5072331;28;19912;-63
2022/07/16 08:17:52;;;;;;;;;;;23.70;45.50;;;;;;5072437;28;20374;-63
2022/07/16 08:20:18;;;;;;;;;;;23.80;45.50;;;;;;5069264;28;19916;-63
2022/07/16 08:22:44;;;;;;;;;;;23.80;45.40;;;;;;5056275;28;19982;-63
2022/07/16 08:27:53;;;;;;;;;;;23.80;45.00;;;;;;5064281;28;20386;-63
2022/07/16 08:30:19;;;;;;;;;;;23.80;44.80;;;;;;5050501;28;20038;-62
2022/07/16 08:32:44;;;;;;;;;;;23.80;44.80;;;;;;5067087;28;20342;-63
2022/07/16 08:35:10;;;;;;;;;;;23.80;44.70;;;;;;5068041;28;19959;-63
2022/07/16 08:37:35;;;;;;;;;;;23.80;44.60;;;;;;5065978;28;19913;-63
2022/07/16 08:40:05;;;;;;;;;;;23.80;44.40;;;;;;5066549;28;20371;-63
2022/07/16 08:42:31;;;;;;;;;;;23.80;44.40;;;;;;5058575;28;20277;-63
2022/07/16 08:44:57;;;;;;;;;;;23.70;44.40;;;;;;5065460;28;20364;-63
2022/07/16 08:47:22;;;;;;;;;;;23.70;44.20;;;;;;5064398;28;19992;-62
2022/07/16 08:49:48;;;;;;;;;;;23.80;43.90;;;;;;5061350;28;19916;-63
2022/07/16 08:52:13;;;;;;;;;;;23.80;43.80;;;;;;5066350;28;20665;-62
2022/07/16 08:54:39;;;;;;;;;;;23.80;43.60;;;;;;5069532;28;19920;-62
2022/07/16 08:57:04;;;;;;;;;;;23.80;44.30;;;;;;5071935;28;19913;-63
2022/07/16 08:59:30;;;;;;;;;;;23.90;43.60;;;;;;5069010;28;20015;-63
2022/07/16 09:01:55;;;;;;;;;;;23.90;43.30;;;;;;5067677;28;20406;-63
2022/07/16 09:04:21;;;;;;;;;;;23.90;43.20;;;;;;5067262;28;20007;-63
2022/07/16 09:06:46;;;;;;;;;;;23.90;42.90;;;;;;5066063;28;19913;-63
2022/07/16 09:09:12;;;;;;;;;;;23.90;42.90;;;;;;5077023;28;19958;-63
2022/07/16 09:11:38;;;;;;;;;;;23.90;42.70;;;;;;5084602;28;20383;-63
2022/07/16 09:14:07;;;;;;;;;;;23.80;42.60;;;;;;5082820;28;19912;-63
2022/07/16 09:16:34;;;;;;;;;;;23.80;42.60;;;;;;5051163;28;19917;-63
2022/07/16 09:19:06;;;;;;;;;;;23.80;42.50;;;;;;5070830;28;19916;-63
2022/07/16 09:21:32;;;;;;;;;;;23.80;42.20;;;;;;5070323;28;19948;-63
2022/07/16 09:23:57;;;;;;;;;;;23.90;42.50;;;;;;5073443;28;20695;-63
2022/07/16 09:26:23;;;;;;;;;;;23.80;42.40;;;;;;5068080;28;20296;-64
2022/07/16 09:28:49;;;;;;;;;;;23.90;42.30;;;;;;5040276;28;19965;-62
2022/07/16 09:31:33;;;;;;;;;;;23.90;42.30;;;;;;5063328;28;20041;-63
2022/07/16 09:34:03;;;;;;;;;;;23.80;42.50;;;;;;5070885;28;19965;-63
2022/07/16 09:36:28;;;;;;;;;;;23.80;42.50;;;;;;5073625;28;20340;-63
2022/07/16 09:38:53;;;;;;;;;;;23.80;42.50;;;;;;5070516;28;20007;-62
2022/07/16 09:41:19;;;;;;;;;;;23.80;42.40;;;;;;5072739;28;19921;-63
2022/07/16 09:43:45;;;;;;;;;;;23.80;42.30;;;;;;5073199;28;19916;-63
2022/07/16 09:46:21;;;;;;;;;;;23.80;42.10;;;;;;5067833;28;19944;-62
2022/07/16 09:48:46;;;;;;;;;;;23.80;42.10;;;;;;5061424;28;19916;-61
2022/07/16 09:51:17;;;;;;;;;;;23.80;42.00;;;;;;5071940;28;19913;-62
2022/07/16 09:53:46;;;;;;;;;;;23.80;42.10;;;;;;5074013;28;20448;-62
2022/07/16 09:56:16;;;;;;;;;;;23.80;42.10;;;;;;5067857;28;20007;-63
2022/07/16 09:58:46;;;;;;;;;;;23.80;42.40;;;;;;5074219;28;19951;-62
2022/07/16 10:01:11;;;;;;;;;;;23.80;42.50;;;;;;5072758;28;19968;-63
2022/07/16 10:03:37;;;;;;;;;;;23.70;42.40;;;;;;5071153;28;19926;-62
2022/07/16 10:06:02;;;;;;;;;;;23.70;42.70;;;;;;5070180;28;20003;-62
2022/07/16 10:08:28;;;;;;;;;;;23.80;42.90;;;;;;5068600;28;19913;-63
2022/07/16 10:10:53;;;;;;;;;;;23.80;42.80;;;;;;5072627;28;19990;-63
2022/07/16 10:13:22;;;;;;;;;;;23.90;43.00;;;;;;5070818;28;19916;-63
2022/07/16 10:15:47;;;;;;;;;;;23.90;42.90;;;;;;5070580;28;20337;-63
2022/07/16 10:18:32;;;;;;;;;;;24.00;43.10;;;;;;5063679;28;19912;-63
2022/07/16 10:21:01;;;;;;;;;;;24.00;43.10;;;;;;5071396;28;19909;-63
2022/07/16 10:23:29;;;;;;;;;;;24.00;43.10;;;;;;5073686;28;19958;-63
2022/07/16 10:25:58;;;;;;;;;;;24.00;43.10;;;;;;5073578;28;20007;-63
2022/07/16 10:28:39;;;;;;;;;;;24.00;43.10;;;;;;5053655;28;19916;-62
2022/07/16 10:31:23;;;;;;;;;;;24.00;43.20;;;;;;5072567;28;19913;-62
2022/07/16 10:34:03;;;;;;;;;;;24.00;43.40;;;;;;5072079;28;19952;-62
2022/07/16 10:36:47;;;;;;;;;;;24.00;43.50;;;;;;5071070;28;19986;-62
2022/07/16 10:39:15;;;;;;;;;;;24.00;43.60;;;;;;5073288;28;19915;-64
2022/07/16 10:41:48;;;;;;;;;;;24.00;43.70;;;;;;5070514;28;19916;-63
2022/07/16 10:44:13;;;;;;;;;;;24.00;43.80;;;;;;5072623;28;19966;-64
2022/07/16 10:46:55;;;;;;;;;;;24.00;43.80;;;;;;5070974;28;19916;-63
2022/07/16 10:49:21;;;;;;;;;;;24.00;43.80;;;;;;5069441;28;19920;-62
2022/07/16 10:51:54;;;;;;;;;;;24.00;43.80;;;;;;5069017;28;19919;-62
2022/07/16 10:54:20;;;;;;;;;;;24.00;43.90;;;;;;5070834;28;20372;-63
2022/07/16 10:56:46;;;;;;;;;;;24.00;43.70;;;;;;5070107;28;19970;-63
2022/07/16 10:59:12;;;;;;;;;;;24.10;43.80;;;;;;5069738;28;19982;-63
2022/07/16 11:01:39;;;;;;;;;;;24.00;43.70;;;;;;5070076;28;19927;-63
2022/07/16 11:04:04;;;;;;;;;;;24.10;43.90;;;;;;5070656;28;20003;-61
2022/07/16 11:06:30;;;;;;;;;;;24.10;43.90;;;;;;5067820;28;19999;-64
2022/07/16 11:08:55;;;;;;;;;;;24.10;43.90;;;;;;5067674;28;19913;-64
2022/07/16 11:11:21;;;;;;;;;;;24.10;43.80;;;;;;5069923;28;19920;-64
2022/07/16 11:13:47;;;;;;;;;;;24.10;43.80;;;;;;5052612;28;20304;-63
2022/07/16 11:16:12;;;;;;;;;;;24.10;43.90;;;;;;5071341;28;19991;-63
2022/07/16 11:18:38;;;;;;;;;;;24.00;43.90;;;;;;5073988;28;19920;-63
2022/07/16 11:21:06;;;;;;;;;;;24.00;44.00;;;;;;5065810;28;19909;-64
2022/07/16 11:23:48;;;;;;;;;;;24.00;44.00;;;;;;5081214;28;19919;-64
2022/07/16 11:26:14;;;;;;;;;;;24.10;43.80;;;;;;5070061;28;20331;-63
2022/07/16 11:28:52;;;;;;;;;;;24.20;43.90;;;;;;5067579;28;19916;-63
2022/07/16 11:31:30;;;;;;;;;;;24.20;43.90;;;;;;5070570;28;19940;-64
2022/07/16 11:33:56;;;;;;;;;;;24.10;43.90;;;;;;5068091;28;19916;-63
2022/07/16 11:36:25;;;;;;;;;;;24.10;43.90;;;;;;5068095;28;19962;-63
2022/07/16 11:38:54;;;;;;;;;;;24.10;43.90;;;;;;5071047;28;19912;-63
2022/07/16 11:41:19;;;;;;;;;;;24.10;43.50;;;;;;5068938;28;19959;-63
2022/07/16 11:43:45;;;;;;;;;;;24.10;43.70;;;;;;5064871;28;19963;-64
2022/07/16 11:46:26;;;;;;;;;;;24.10;43.30;;;;;;5067443;28;20439;-63
2022/07/16 11:48:52;;;;;;;;;;;24.10;43.30;;;;;;5070655;28;19923;-64
2022/07/16 11:51:18;;;;;;;;;;;24.10;43.10;;;;;;5068155;28;20350;-63
2022/07/16 11:53:53;;;;;;;;;;;24.10;43.10;;;;;;5063752;28;19935;-62
2022/07/16 11:56:32;;;;;;;;;;;24.20;42.90;;;;;;5066147;28;19917;-61
2022/07/16 11:58:57;;;;;;;;;;;24.20;42.90;;;;;;5069869;28;19955;-63
2022/07/16 12:01:24;;;;;;;;;;;24.20;42.90;;;;;;5068482;28;20020;-64
2022/07/16 12:03:53;;;;;;;;;;;24.20;42.80;;;;;;5067022;28;19909;-64
2022/07/16 12:06:18;;;;;;;;;;;24.20;42.60;;;;;;5069824;28;19912;-63
2022/07/16 12:08:53;;;;;;;;;;;24.20;42.70;;;;;;5070424;28;19923;-61
2022/07/16 12:11:19;;;;;;;;;;;24.20;42.80;;;;;;5070897;28;19963;-63
2022/07/16 12:13:51;;;;;;;;;;;24.10;42.80;;;;;;5072434;28;19967;-63
2022/07/16 12:16:19;;;;;;;;;;;24.20;42.50;;;;;;5068908;28;22350;-63
2022/07/16 12:19:00;;;;;;;;;;;24.10;42.40;;;;;;5055872;28;19916;-63
2022/07/16 12:21:29;;;;;;;;;;;24.10;42.30;;;;;;5063495;28;19919;-63
2022/07/16 12:23:54;;;;;;;;;;;24.00;42.50;;;;;;5063315;28;19947;-62
2022/07/16 12:26:27;;;;;;;;;;;24.00;42.60;;;;;;5067083;28;19947;-60
2022/07/16 12:28:53;;;;;;;;;;;24.00;42.10;;;;;;5051779;28;19912;-62
2022/07/16 12:31:18;;;;;;;;;;;24.00;42.20;;;;;;5070556;28;19985;-62
2022/07/16 12:33:50;;;;;;;;;;;24.00;42.20;;;;;;5069960;28;20376;-62
2022/07/16 12:36:15;;;;;;;;;;;24.00;42.20;;;;;;5070275;28;19912;-62
2022/07/16 12:38:58;;;;;;;;;;;24.10;42.00;;;;;;5072028;28;19923;-63
2022/07/16 12:41:27;;;;;;;;;;;24.20;41.90;;;;;;5078271;28;19908;-62
2022/07/16 12:43:54;;;;;;;;;;;24.20;41.80;;;;;;5071647;28;19908;-62
2022/07/16 12:46:29;;;;;;;;;;;24.20;41.70;;;;;;5072006;28;19912;-62
2022/07/16 12:48:56;;;;;;;;;;;24.20;41.70;;;;;;5070211;28;19912;-63
2022/07/16 12:51:22;;;;;;;;;;;24.20;41.70;;;;;;5070142;28;19915;-62
2022/07/16 12:53:48;;;;;;;;;;;24.20;41.80;;;;;;5071656;28;19915;-62
2022/07/16 12:58:57;;;;;;;;;;;24.20;42.10;;;;;;5070837;28;20012;-62
2022/07/16 13:01:24;;;;;;;;;;;24.20;42.20;;;;;;5071530;28;19991;-62
2022/07/16 13:03:49;;;;;;;;;;;24.20;42.10;;;;;;5070099;28;19957;-63
2022/07/16 13:06:15;;;;;;;;;;;24.20;42.10;;;;;;5064725;28;19909;-63
2022/07/16 13:08:40;;;;;;;;;;;24.20;42.00;;;;;;5053458;28;19923;-63
2022/07/16 13:11:09;;;;;;;;;;;24.20;42.10;;;;;;5070109;28;20369;-63
2022/07/16 13:13:35;;;;;;;;;;;24.20;41.90;;;;;;5071510;28;20439;-62
2022/07/16 13:16:00;;;;;;;;;;;24.20;41.80;;;;;;5064812;28;19917;-62
2022/07/16 13:18:26;;;;;;;;;;;24.20;41.50;;;;;;5056849;28;19919;-62
2022/07/16 13:20:51;;;;;;;;;;;24.30;41.70;;;;;;5071323;28;19950;-62
2022/07/16 13:23:17;;;;;;;;;;;24.30;41.50;;;;;;5070197;28;19930;-62
2022/07/16 13:25:43;;;;;;;;;;;24.30;41.40;;;;;;5071494;28;19973;-62
2022/07/16 13:28:08;;;;;;;;;;;24.30;41.50;;;;;;5068811;28;19909;-62
2022/07/16 13:30:34;;;;;;;;;;;24.30;41.40;;;;;;5071479;28;20266;-62
2022/07/16 13:32:59;;;;;;;;;;;24.30;41.40;;;;;;5070967;28;19916;-62
2022/07/16 13:35:25;;;;;;;;;;;24.20;41.40;;;;;;5070825;28;19919;-63
2022/07/16 13:37:51;;;;;;;;;;;24.20;41.30;;;;;;5071322;28;19930;-62
2022/07/16 13:40:17;;;;;;;;;;;24.30;41.30;;;;;;5071388;28;19909;-62
2022/07/16 13:42:42;;;;;;;;;;;24.30;41.10;;;;;;5070031;28;19942;-62
2022/07/16 13:45:08;;;;;;;;;;;24.30;41.00;;;;;;5071248;28;20369;-62
2022/07/16 13:47:35;;;;;;;;;;;24.30;41.00;;;;;;5069839;28;20364;-62
2022/07/16 13:50:00;;;;;;;;;;;24.30;41.00;;;;;;5070705;28;20489;-62
2022/07/16 13:52:26;;;;;;;;;;;24.30;41.10;;;;;;5072083;28;19909;-62
2022/07/16 13:54:51;;;;;;;;;;;24.30;40.90;;;;;;5068924;28;19916;-62
2022/07/16 14:00:01;;;;;;;;;;;24.30;40.80;;;;;;5055041;28;20007;-62
2022/07/16 14:02:27;;;;;;;;;;;24.30;40.90;;;;;;5068249;28;20348;-63
2022/07/16 14:04:52;;;;;;;;;;;24.40;40.90;;;;;;5074379;28;19958;-62
2022/07/16 14:07:18;;;;;;;;;;;24.30;40.70;;;;;;5074640;28;20352;-63
2022/07/16 14:09:43;;;;;;;;;;;24.30;40.80;;;;;;5072184;28;19908;-62
2022/07/16 14:12:08;;;;;;;;;;;24.30;40.80;;;;;;5074578;28;19920;-62
2022/07/16 14:14:34;;;;;;;;;;;24.30;40.90;;;;;;5085724;28;20372;-62
2022/07/16 14:16:59;;;;;;;;;;;24.30;40.70;;;;;;5094791;28;19923;-63
2022/07/16 14:19:25;;;;;;;;;;;24.30;40.60;;;;;;5093917;28;19912;-62
2022/07/16 14:21:50;;;;;;;;;;;24.40;40.50;;;;;;5094888;28;19912;-62
2022/07/16 14:24:16;;;;;;;;;;;24.40;40.50;;;;;;5076945;28;19957;-62